createdAt,value
2023-07-17T00:01:09.978Z,27.62
2023-07-17T00:03:37.961Z,27.60
2023-07-17T00:06:05.862Z,27.57
2023-07-17T00:08:33.468Z,27.52
2023-07-17T00:11:01.162Z,27.41
2023-07-17T00:13:28.657Z,27.53
2023-07-17T00:15:56.071Z,27.45
2023-07-17T00:18:23.759Z,27.28
2023-07-17T00:20:51.177Z,27.39
2023-07-17T00:23:18.596Z,27.24
2023-07-17T00:25:46.499Z,27.19
2023-07-17T00:28:13.912Z,27.15
2023-07-17T00:30:41.990Z,27.26
2023-07-17T00:33:10.427Z,27.17
2023-07-17T00:35:38.037Z,27.10
2023-07-17T00:38:05.490Z,27.16
2023-07-17T00:40:33.855Z,27.27
2023-07-17T00:43:02.067Z,27.21
2023-07-17T00:45:33.297Z,26.97
2023-07-17T00:48:03.919Z,27.10
2023-07-17T00:50:31.631Z,27.02
2023-07-17T00:52:59.083Z,27.15
2023-07-17T00:55:27.039Z,26.92
2023-07-17T00:57:54.732Z,26.94
2023-07-17T01:00:24.259Z,26.99
2023-07-17T01:02:53.736Z,27.00
2023-07-17T01:05:21.368Z,26.95
2023-07-17T01:07:48.903Z,26.97
2023-07-17T01:10:16.762Z,27.04
2023-07-17T01:12:44.608Z,26.71
2023-07-17T01:15:12.176Z,26.88
2023-07-17T01:17:40.181Z,26.70
2023-07-17T01:20:10.751Z,26.61
2023-07-17T01:22:55.552Z,26.71
2023-07-17T01:25:23.400Z,26.76
2023-07-17T01:27:51.073Z,26.65
2023-07-17T01:30:18.733Z,26.94
2023-07-17T01:32:46.512Z,26.58
2023-07-17T01:35:14.342Z,26.70
2023-07-17T01:37:43.893Z,26.55
2023-07-17T01:40:15.090Z,26.46
2023-07-17T01:42:42.541Z,26.64
2023-07-17T01:45:11.235Z,26.53
2023-07-17T01:47:39.015Z,26.46
2023-07-17T01:50:07.103Z,26.29
2023-07-17T01:52:34.598Z,26.34
2023-07-17T01:55:02.336Z,26.44
2023-07-17T01:57:30.611Z,26.32
2023-07-17T01:59:58.030Z,26.22
2023-07-17T02:02:27.038Z,26.22
2023-07-17T02:04:55.404Z,26.38
2023-07-17T02:07:22.906Z,26.49
2023-07-17T02:09:50.348Z,26.23
2023-07-17T02:12:19.638Z,25.74
2023-07-17T02:14:47.200Z,26.12
2023-07-17T02:17:14.704Z,26.05
2023-07-17T02:19:42.563Z,26.02
2023-07-17T02:22:10.036Z,25.98
2023-07-17T02:24:37.558Z,25.92
2023-07-17T02:27:05.618Z,25.83
2023-07-17T02:29:33.824Z,25.88
2023-07-17T02:32:01.349Z,25.99
2023-07-17T02:34:29.933Z,25.93
2023-07-17T02:36:57.575Z,25.99
2023-07-17T02:39:25.022Z,26.01
2023-07-17T02:41:52.927Z,25.96
2023-07-17T02:44:20.953Z,25.94
2023-07-17T02:46:48.613Z,25.94
2023-07-17T02:49:16.525Z,26.10
2023-07-17T02:51:43.976Z,25.99
2023-07-17T02:54:11.999Z,25.93
2023-07-17T02:56:39.747Z,25.90
2023-07-17T02:59:07.276Z,25.85
2023-07-17T03:01:34.922Z,25.82
2023-07-17T03:04:02.865Z,25.81
2023-07-17T03:06:30.437Z,25.76
2023-07-17T03:08:57.849Z,26.02
2023-07-17T03:11:25.557Z,25.84
2023-07-17T03:13:53.017Z,25.76
2023-07-17T03:16:20.533Z,25.75
2023-07-17T03:18:48.353Z,25.82
2023-07-17T03:21:17.130Z,25.80
2023-07-17T03:23:44.915Z,25.77
2023-07-17T03:26:12.612Z,25.81
2023-07-17T03:28:40.796Z,25.86
2023-07-17T03:31:10.774Z,26.12
2023-07-17T03:33:40.736Z,25.85
2023-07-17T03:36:08.244Z,25.83
2023-07-17T03:38:35.823Z,25.76
2023-07-17T03:41:04.323Z,25.76
2023-07-17T03:43:31.816Z,25.82
2023-07-17T03:45:59.225Z,25.85
2023-07-17T03:48:27.487Z,25.85
2023-07-17T03:50:55.399Z,25.87
2023-07-17T03:53:22.809Z,26.01
2023-07-17T03:55:51.749Z,26.32
2023-07-17T03:58:19.206Z,26.09
2023-07-17T04:00:46.687Z,26.37
2023-07-17T04:03:14.756Z,26.49
2023-07-17T04:05:43.033Z,26.39
2023-07-17T04:08:10.599Z,26.33
2023-07-17T04:10:38.316Z,26.58
2023-07-17T04:13:05.926Z,26.59
2023-07-17T04:15:36.292Z,26.71
2023-07-17T04:18:04.425Z,26.71
2023-07-17T04:20:32.086Z,26.80
2023-07-17T04:22:59.732Z,26.91
2023-07-17T04:25:27.497Z,26.95
2023-07-17T04:27:54.975Z,27.16
2023-07-17T04:30:23.876Z,27.50
2023-07-17T04:32:54.469Z,27.62
2023-07-17T04:35:22.095Z,27.75
2023-07-17T04:37:50.456Z,27.77
2023-07-17T04:40:18.760Z,27.68
2023-07-17T04:42:48.018Z,27.54
2023-07-17T04:45:16.813Z,27.68
2023-07-17T04:47:44.612Z,27.86
2023-07-17T04:50:13.027Z,27.96
2023-07-17T04:52:40.549Z,28.12
2023-07-17T04:55:08.886Z,28.24
2023-07-17T04:57:36.485Z,28.27
2023-07-17T05:00:06.717Z,28.47
2023-07-17T05:02:34.527Z,28.60
2023-07-17T05:05:02.024Z,28.81
2023-07-17T05:07:29.666Z,28.79
2023-07-17T05:09:58.048Z,28.90
2023-07-17T05:12:25.477Z,29.01
2023-07-17T05:14:53.212Z,29.17
2023-07-17T05:17:22.034Z,29.33
2023-07-17T05:19:49.583Z,29.43
2023-07-17T05:22:17.163Z,29.54
2023-07-17T05:24:45.580Z,29.63
2023-07-17T05:27:13.079Z,29.56
2023-07-17T05:29:40.550Z,29.76
2023-07-17T05:32:08.384Z,30.01
2023-07-17T05:34:35.874Z,30.16
2023-07-17T05:37:04.621Z,30.14
2023-07-17T05:39:33.131Z,30.00
2023-07-17T05:42:00.724Z,30.01
2023-07-17T05:44:28.198Z,30.49
2023-07-17T05:46:56.579Z,30.73
2023-07-17T05:49:24.397Z,30.66
2023-07-17T05:51:51.907Z,30.61
2023-07-17T05:54:19.729Z,30.68
2023-07-17T05:56:47.221Z,30.82
2023-07-17T05:59:14.880Z,31.26
2023-07-17T06:01:43.067Z,31.31
2023-07-17T06:04:10.993Z,31.64
2023-07-17T06:06:38.476Z,31.59
2023-07-17T06:09:05.911Z,31.91
2023-07-17T06:11:33.619Z,31.94
2023-07-17T06:14:01.276Z,31.34
2023-07-17T06:16:28.813Z,31.68
2023-07-17T06:18:57.207Z,31.90
2023-07-17T06:21:24.686Z,32.18
2023-07-17T06:23:52.378Z,31.72
2023-07-17T06:26:20.144Z,32.05
2023-07-17T06:28:48.583Z,32.31
2023-07-17T06:31:16.339Z,32.49
2023-07-17T06:33:44.317Z,32.54
2023-07-17T06:36:11.785Z,32.73
2023-07-17T06:38:39.354Z,32.69
2023-07-17T06:41:07.169Z,32.87
2023-07-17T06:43:34.793Z,33.02
2023-07-17T06:46:02.431Z,32.68
2023-07-17T06:48:30.228Z,32.77
2023-07-17T06:50:57.824Z,32.86
2023-07-17T06:53:25.269Z,32.77
2023-07-17T06:56:00.664Z,33.06
2023-07-17T06:58:28.701Z,33.18
2023-07-17T07:00:58.323Z,32.98
2023-07-17T07:03:27.562Z,33.43
2023-07-17T07:05:56.403Z,33.77
2023-07-17T07:08:27.889Z,33.85
2023-07-17T07:10:57.105Z,33.53
2023-07-17T07:13:25.501Z,33.47
2023-07-17T07:15:53.102Z,33.64
2023-07-17T07:18:21.462Z,33.38
2023-07-17T07:20:52.630Z,33.82
2023-07-17T07:23:21.055Z,34.20
2023-07-17T07:25:48.916Z,34.31
2023-07-17T07:28:16.514Z,34.40
2023-07-17T07:30:44.008Z,34.58
2023-07-17T07:33:12.181Z,34.61
2023-07-17T07:35:44.700Z,34.61
2023-07-17T07:38:12.415Z,34.12
2023-07-17T07:40:40.583Z,34.02
2023-07-17T07:43:08.065Z,34.03
2023-07-17T07:45:35.879Z,34.38
2023-07-17T07:48:03.657Z,34.82
2023-07-17T07:50:34.903Z,35.09
2023-07-17T07:53:03.546Z,35.53
2023-07-17T07:55:31.110Z,35.41
2023-07-17T07:57:58.697Z,35.47
2023-07-17T08:00:26.568Z,35.12
2023-07-17T08:02:56.191Z,34.77
2023-07-17T08:05:23.959Z,35.04
2023-07-17T08:07:51.420Z,35.23
2023-07-17T08:10:19.313Z,35.58
2023-07-17T08:12:47.035Z,35.65
2023-07-17T08:15:14.577Z,35.44
2023-07-17T08:17:42.397Z,35.81
2023-07-17T08:20:10.346Z,35.60
2023-07-17T08:22:38.000Z,35.76
2023-07-17T08:25:06.512Z,35.65
2023-07-17T08:27:34.306Z,35.88
2023-07-17T08:30:01.921Z,36.34
2023-07-17T08:32:29.689Z,36.10
2023-07-17T08:34:57.571Z,36.38
2023-07-17T08:37:25.127Z,36.33
2023-07-17T08:39:52.910Z,36.76
2023-07-17T08:42:20.369Z,36.40
2023-07-17T08:44:47.864Z,36.24
2023-07-17T08:47:15.846Z,36.50
2023-07-17T08:49:44.154Z,36.33
2023-07-17T08:52:12.303Z,36.22
2023-07-17T08:54:40.219Z,36.15
2023-07-17T08:57:07.979Z,36.74
2023-07-17T08:59:36.125Z,36.87
2023-07-17T09:02:05.334Z,36.85
2023-07-17T09:04:34.261Z,36.69
2023-07-17T09:07:01.770Z,36.99
2023-07-17T09:09:29.629Z,37.05
2023-07-17T09:12:10.380Z,37.28
2023-07-17T09:14:39.082Z,37.30
2023-07-17T09:17:09.269Z,37.14
2023-07-17T09:19:37.429Z,37.01
2023-07-17T09:22:06.799Z,36.79
2023-07-17T09:24:36.077Z,37.29
2023-07-17T09:27:09.933Z,37.05
2023-07-17T09:29:42.792Z,37.36
2023-07-17T09:32:19.942Z,37.74
2023-07-17T09:35:05.383Z,37.46
2023-07-17T09:37:34.056Z,37.55
2023-07-17T09:40:08.473Z,37.86
2023-07-17T09:42:36.441Z,37.82
2023-07-17T09:45:04.810Z,38.05
2023-07-17T09:47:33.122Z,38.02
2023-07-17T09:50:02.471Z,38.17
2023-07-17T09:52:31.428Z,37.84
2023-07-17T09:55:01.990Z,38.18
2023-07-17T09:57:30.222Z,37.88
2023-07-17T10:00:15.424Z,37.62
2023-07-17T10:02:52.221Z,37.84
2023-07-17T10:05:20.040Z,38.16
2023-07-17T10:07:49.593Z,38.21
2023-07-17T10:10:17.322Z,38.53
2023-07-17T10:12:45.894Z,38.09
2023-07-17T10:15:15.350Z,38.18
2023-07-17T10:17:43.092Z,38.40
2023-07-17T10:20:12.185Z,38.67
2023-07-17T10:22:46.431Z,38.38
2023-07-17T10:25:20.005Z,38.67
2023-07-17T10:27:51.451Z,39.00
2023-07-17T10:30:23.899Z,38.72
2023-07-17T10:33:18.317Z,38.95
2023-07-17T10:35:48.798Z,39.18
2023-07-17T10:38:30.579Z,38.96
2023-07-17T10:41:13.637Z,38.96
2023-07-17T10:44:01.796Z,39.20
2023-07-17T10:46:39.025Z,38.81
2023-07-17T10:49:10.716Z,38.40
2023-07-17T10:51:39.110Z,37.70
2023-07-17T10:54:06.792Z,37.62
2023-07-17T10:56:34.362Z,38.01
2023-07-17T10:59:02.791Z,38.67
2023-07-17T11:01:31.887Z,38.75
2023-07-17T11:03:59.655Z,38.59
2023-07-17T11:06:28.365Z,38.39
2023-07-17T11:08:56.499Z,38.28
2023-07-17T11:11:24.004Z,38.07
2023-07-17T11:13:54.055Z,38.07
2023-07-17T11:16:22.999Z,37.78
2023-07-17T11:18:53.751Z,37.74
2023-07-17T11:21:23.967Z,37.57
2023-07-17T11:23:53.630Z,37.77
2023-07-17T11:26:29.199Z,37.89
2023-07-17T11:28:58.298Z,37.80
2023-07-17T11:31:30.795Z,37.64
2023-07-17T11:34:00.360Z,37.99
2023-07-17T11:36:33.170Z,38.24
2023-07-17T11:39:21.672Z,37.24
2023-07-17T11:41:49.144Z,37.84
2023-07-17T11:44:22.148Z,38.18
2023-07-17T11:46:49.602Z,38.46
2023-07-17T11:49:17.423Z,38.58
2023-07-17T11:51:47.740Z,38.71
2023-07-17T11:54:15.389Z,39.11
2023-07-17T11:56:44.798Z,39.49
2023-07-17T11:59:19.206Z,39.87
2023-07-17T12:01:47.704Z,39.89
2023-07-17T12:04:25.710Z,39.51
2023-07-17T12:06:59.714Z,39.77
2023-07-17T12:09:27.983Z,39.98
2023-07-17T12:11:56.538Z,40.11
2023-07-17T12:14:24.021Z,40.07
2023-07-17T12:16:51.832Z,39.72
2023-07-17T12:19:20.293Z,39.74
2023-07-17T12:21:49.688Z,39.84
2023-07-17T12:24:17.504Z,39.82
2023-07-17T12:26:44.979Z,39.67
2023-07-17T12:29:12.496Z,39.62
2023-07-17T12:31:40.307Z,39.88
2023-07-17T12:34:09.084Z,40.24
2023-07-17T12:36:36.727Z,39.97
2023-07-17T12:39:15.606Z,39.32
2023-07-17T12:41:43.554Z,39.67
2023-07-17T12:44:11.814Z,39.70
2023-07-17T12:46:39.602Z,39.31
2023-07-17T12:49:07.260Z,38.99
2023-07-17T12:51:36.042Z,38.83
2023-07-17T12:54:03.891Z,38.35
2023-07-17T12:56:32.720Z,38.22
2023-07-17T12:59:00.641Z,38.77
2023-07-17T13:01:28.346Z,38.78
2023-07-17T13:03:56.374Z,38.16
2023-07-17T13:06:27.041Z,38.13
2023-07-17T13:08:54.571Z,38.12
2023-07-17T13:11:22.790Z,37.98
2023-07-17T13:13:51.589Z,37.94
2023-07-17T13:16:19.785Z,37.81
2023-07-17T13:18:47.556Z,37.92
2023-07-17T13:21:15.389Z,37.26
2023-07-17T13:23:42.834Z,37.46
2023-07-17T13:26:10.608Z,37.51
2023-07-17T13:28:38.434Z,37.50
2023-07-17T13:31:10.434Z,37.60
2023-07-17T13:33:39.145Z,37.69
2023-07-17T13:36:07.416Z,37.28
2023-07-17T13:38:35.171Z,37.32
2023-07-17T13:41:03.640Z,37.44
2023-07-17T13:43:31.125Z,37.23
2023-07-17T13:45:58.594Z,37.30
2023-07-17T13:48:26.398Z,37.30
2023-07-17T13:50:53.900Z,37.38
2023-07-17T13:53:21.493Z,37.00
2023-07-17T13:55:49.351Z,36.91
2023-07-17T13:58:17.112Z,36.78
2023-07-17T14:00:44.892Z,36.92
2023-07-17T14:03:12.727Z,36.89
2023-07-17T14:05:40.465Z,36.76
2023-07-17T14:08:07.956Z,36.40
2023-07-17T14:10:35.771Z,36.49
2023-07-17T14:13:03.988Z,36.19
2023-07-17T14:15:31.651Z,36.13
2023-07-17T14:17:59.594Z,35.97
2023-07-17T14:20:27.091Z,35.92
2023-07-17T14:22:54.607Z,35.86
2023-07-17T14:25:24.908Z,35.63
2023-07-17T14:27:52.485Z,35.74
2023-07-17T14:30:20.170Z,35.63
2023-07-17T14:32:48.261Z,35.50
2023-07-17T14:35:15.841Z,35.25
2023-07-17T14:37:43.530Z,34.84
2023-07-17T14:40:11.676Z,34.49
2023-07-17T14:42:39.176Z,34.40
2023-07-17T14:45:07.119Z,34.34
2023-07-17T14:47:35.063Z,33.92
2023-07-17T14:50:05.347Z,34.55
2023-07-17T14:52:33.261Z,34.56
2023-07-17T14:55:01.047Z,34.43
2023-07-17T14:57:28.513Z,34.24
2023-07-17T14:59:56.007Z,34.40
2023-07-17T15:02:23.814Z,34.35
2023-07-17T15:04:51.270Z,34.42
2023-07-17T15:07:18.830Z,34.39
2023-07-17T15:09:46.813Z,34.24
2023-07-17T15:12:14.621Z,34.25
2023-07-17T15:14:42.091Z,33.68
2023-07-17T15:17:09.952Z,34.01
2023-07-17T15:19:42.049Z,34.22
2023-07-17T15:22:10.743Z,34.00
2023-07-17T15:24:38.300Z,34.18
2023-07-17T15:27:06.933Z,33.89
2023-07-17T15:29:35.070Z,34.12
2023-07-17T15:32:03.725Z,34.17
2023-07-17T15:34:31.163Z,33.70
2023-07-17T15:36:58.904Z,33.83
2023-07-17T15:39:26.431Z,33.61
2023-07-17T15:41:54.128Z,33.67
2023-07-17T15:44:22.108Z,34.03
2023-07-17T15:46:50.619Z,33.75
2023-07-17T15:49:18.061Z,33.99
2023-07-17T15:51:45.882Z,33.76
2023-07-17T15:54:13.419Z,34.23
2023-07-17T15:56:40.842Z,34.36
2023-07-17T15:59:08.622Z,33.93
2023-07-17T16:01:36.243Z,33.83
2023-07-17T16:04:04.161Z,34.21
2023-07-17T16:06:31.714Z,34.21
2023-07-17T16:08:59.148Z,33.90
2023-07-17T16:11:27.718Z,33.91
2023-07-17T16:13:55.261Z,34.11
2023-07-17T16:16:22.777Z,33.91
2023-07-17T16:18:50.552Z,33.49
2023-07-17T16:21:18.287Z,33.60
2023-07-17T16:23:45.730Z,34.19
2023-07-17T16:26:13.450Z,34.14
2023-07-17T16:28:40.942Z,34.00
2023-07-17T16:31:08.671Z,34.01
2023-07-17T16:33:36.502Z,34.29
2023-07-17T16:36:04.135Z,34.39
2023-07-17T16:38:31.790Z,34.21
2023-07-17T16:40:59.615Z,33.99
2023-07-17T16:43:27.059Z,34.26
2023-07-17T16:45:54.735Z,34.22
2023-07-17T16:48:22.559Z,34.18
2023-07-17T16:50:50.029Z,33.87
2023-07-17T16:53:17.573Z,34.00
2023-07-17T16:55:45.403Z,34.23
2023-07-17T16:58:15.213Z,34.23
2023-07-17T17:00:42.710Z,34.01
2023-07-17T17:03:10.655Z,33.92
2023-07-17T17:05:38.421Z,34.05
2023-07-17T17:08:06.067Z,33.60
2023-07-17T17:10:34.730Z,33.94
2023-07-17T17:13:02.197Z,34.14
2023-07-17T17:15:30.986Z,33.92
2023-07-17T17:17:58.813Z,33.86
2023-07-17T17:20:26.515Z,33.69
2023-07-17T17:22:55.980Z,33.59
2023-07-17T17:25:23.870Z,33.38
2023-07-17T17:27:51.402Z,33.30
2023-07-17T17:30:20.833Z,33.24
2023-07-17T17:32:48.601Z,33.25
2023-07-17T17:35:16.350Z,33.15
2023-07-17T17:37:45.070Z,33.16
2023-07-17T17:40:13.435Z,32.98
2023-07-17T17:42:40.943Z,32.93
2023-07-17T17:45:11.128Z,32.94
2023-07-17T17:47:38.917Z,32.87
2023-07-17T17:50:06.867Z,32.92
2023-07-17T17:52:37.484Z,32.36
2023-07-17T17:55:05.832Z,32.64
2023-07-17T17:57:33.411Z,32.39
2023-07-17T18:00:01.006Z,32.56
2023-07-17T18:02:30.973Z,32.41
2023-07-17T18:04:58.738Z,32.47
2023-07-17T18:07:26.280Z,32.30
2023-07-17T18:09:53.707Z,32.38
2023-07-17T18:12:21.538Z,32.46
2023-07-17T18:14:49.002Z,32.46
2023-07-17T18:17:17.176Z,32.39
2023-07-17T18:19:45.037Z,32.44
2023-07-17T18:22:12.853Z,32.42
2023-07-17T18:24:41.053Z,32.40
2023-07-17T18:27:08.944Z,32.32
2023-07-17T18:29:36.982Z,32.24
2023-07-17T18:32:04.836Z,32.19
2023-07-17T18:34:33.297Z,32.17
2023-07-17T18:37:01.051Z,32.14
2023-07-17T18:39:28.961Z,32.10
2023-07-17T18:41:58.107Z,32.04
2023-07-17T18:44:25.538Z,31.92
2023-07-17T18:46:53.178Z,31.92
2023-07-17T18:49:21.971Z,32.01
2023-07-17T18:51:49.496Z,31.98
2023-07-17T18:54:17.185Z,31.81
2023-07-17T18:56:45.179Z,31.73
2023-07-17T18:59:20.647Z,31.71
2023-07-17T19:01:58.466Z,31.60
2023-07-17T19:04:26.901Z,31.52
2023-07-17T19:06:55.699Z,31.43
2023-07-17T19:09:25.745Z,31.21
2023-07-17T19:11:54.960Z,31.12
2023-07-17T19:14:25.357Z,31.20
2023-07-17T19:16:53.009Z,31.09
2023-07-17T19:19:20.811Z,30.92
2023-07-17T19:21:48.625Z,30.79
2023-07-17T19:24:16.023Z,30.77
2023-07-17T19:26:43.734Z,30.76
2023-07-17T19:29:11.530Z,30.67
2023-07-17T19:31:39.187Z,30.63
2023-07-17T19:34:06.823Z,30.44
2023-07-17T19:36:36.088Z,30.46
2023-07-17T19:39:03.913Z,30.34
2023-07-17T19:41:31.419Z,30.23
2023-07-17T19:43:59.840Z,30.19
2023-07-17T19:46:27.822Z,30.13
2023-07-17T19:48:55.739Z,30.15
2023-07-17T19:51:23.596Z,30.06
2023-07-17T19:53:51.138Z,29.96
2023-07-17T19:56:18.826Z,29.81
2023-07-17T19:58:47.020Z,29.91
2023-07-17T20:01:14.477Z,29.75
2023-07-17T20:03:42.650Z,29.68
2023-07-17T20:06:14.594Z,29.63
2023-07-17T20:08:42.577Z,29.62
2023-07-17T20:11:10.014Z,29.53
2023-07-17T20:13:37.583Z,29.38
2023-07-17T20:16:05.452Z,29.42
2023-07-17T20:18:32.962Z,29.24
2023-07-17T20:21:00.523Z,29.20
2023-07-17T20:23:28.903Z,29.19
2023-07-17T20:25:56.384Z,29.12
2023-07-17T20:28:23.888Z,29.14
2023-07-17T20:30:51.597Z,29.00
2023-07-17T20:33:19.114Z,28.95
2023-07-17T20:35:46.610Z,28.87
2023-07-17T20:38:14.700Z,28.83
2023-07-17T20:40:42.218Z,28.83
2023-07-17T20:43:09.708Z,28.80
2023-07-17T20:45:49.703Z,28.60
2023-07-17T20:48:17.528Z,28.53
2023-07-17T20:51:03.406Z,28.49
2023-07-17T20:53:31.040Z,28.35
2023-07-17T20:55:58.909Z,28.17
2023-07-17T20:58:26.531Z,28.21
2023-07-17T21:01:01.190Z,28.10
2023-07-17T21:03:29.811Z,28.08
2023-07-17T21:05:57.244Z,27.94
2023-07-17T21:08:27.112Z,27.86
2023-07-17T21:10:57.686Z,27.85
2023-07-17T21:13:25.477Z,27.78
2023-07-17T21:15:54.191Z,27.80
2023-07-17T21:18:22.004Z,27.83
2023-07-17T21:20:49.531Z,27.75
2023-07-17T21:23:17.217Z,27.70
2023-07-17T21:25:45.616Z,27.61
2023-07-17T21:28:13.122Z,27.64
2023-07-17T21:30:40.826Z,27.60
2023-07-17T21:33:09.043Z,27.59
2023-07-17T21:35:36.520Z,27.55
2023-07-17T21:38:04.044Z,27.58
2023-07-17T21:40:31.846Z,27.37
2023-07-17T21:42:59.302Z,27.30
2023-07-17T21:45:26.984Z,27.26
2023-07-17T21:47:54.849Z,27.20
2023-07-17T21:50:23.045Z,27.15
2023-07-17T21:52:50.553Z,27.11
2023-07-17T21:55:18.351Z,27.09
2023-07-17T21:57:45.833Z,27.05
2023-07-17T22:00:14.261Z,27.10
2023-07-17T22:02:44.856Z,27.12
2023-07-17T22:05:13.907Z,27.11
2023-07-17T22:07:41.648Z,27.07
2023-07-17T22:10:09.633Z,27.15
2023-07-17T22:12:37.122Z,27.14
2023-07-17T22:15:05.328Z,27.03
2023-07-17T22:17:33.033Z,27.02
2023-07-17T22:20:04.318Z,27.05
2023-07-17T22:22:32.114Z,27.03
2023-07-17T22:24:59.619Z,26.94
2023-07-17T22:27:27.668Z,26.96
2023-07-17T22:29:59.856Z,27.03
2023-07-17T22:32:27.802Z,26.90
2023-07-17T22:34:56.810Z,27.02
2023-07-17T22:37:25.179Z,26.85
2023-07-17T22:39:53.751Z,26.88
2023-07-17T22:42:22.506Z,26.58
2023-07-17T22:44:52.940Z,26.72
2023-07-17T22:47:21.161Z,26.74
2023-07-17T22:49:49.621Z,26.80
2023-07-17T22:52:21.989Z,26.84
2023-07-17T22:54:53.579Z,26.88
2023-07-17T22:57:22.154Z,26.84
2023-07-17T22:59:49.834Z,26.90
2023-07-17T23:02:17.564Z,26.92
2023-07-17T23:04:45.208Z,26.91
2023-07-17T23:07:13.017Z,26.67
2023-07-17T23:09:40.752Z,26.67
2023-07-17T23:12:09.148Z,26.66
2023-07-17T23:14:38.120Z,26.71
2023-07-17T23:17:08.117Z,26.55
2023-07-17T23:19:35.670Z,26.63
2023-07-17T23:22:03.747Z,26.62
2023-07-17T23:24:31.905Z,26.58
2023-07-17T23:26:59.623Z,26.52
2023-07-17T23:29:27.367Z,26.61
2023-07-17T23:31:55.286Z,26.52
2023-07-17T23:34:22.869Z,26.51
2023-07-17T23:36:50.624Z,26.50
2023-07-17T23:39:21.393Z,26.46
2023-07-17T23:41:50.875Z,26.37
2023-07-17T23:44:18.830Z,26.27
2023-07-17T23:46:46.437Z,26.23
2023-07-17T23:49:13.981Z,26.19
2023-07-17T23:51:44.394Z,26.17
2023-07-17T23:54:12.438Z,26.22
2023-07-17T23:56:40.634Z,26.33
2023-07-17T23:59:08.520Z,26.15
